Trilla, Illinois
Current Conditions -  °F | °C
As of 1:53 PM on Sunday 23 Nov 2014 (Local Time) from KMTO Reporting Station
Light Rain Light Rain  
Wind Chill: 51°   Ceiling: 800
Heat Index: 51°   Visibility: 10mi
Dew Point: 49°   Wind: 15mph
Humidity: 92%   Direction: 150°SSE
Pressure: 29.5"   Gusts: NA
Location:  39.37°N, 88.35°W
Report Text: KMTO 231953Z AUTO 15013KT 10SM -RA OVC008 11/09 A2950 RMK AO2 RAB15 CIG 006V011 SLP991 P0000 T01060094
Loading
Personal Weather Stations






























Interactive Weather Map New forecast layout! Learn more

10-Day Weather Forecast

Advertisements
Track Severe Weather on mobile